Jefferson, MA (01522)

12:47 AM EDT on April 28, 2017 (GMT -0400)
Quin Station | | Change Station

Elev 761 ft 42.37 °N, 71.87 °W | Updated 58 seconds ago

Overcast
Overcast
58.5 °F
Feels Like 58.5 °F
N
0.5
Wind Variable Wind from North
Gusts 1.8 mph

Today
High -- | Low -- °F
--% Chance of Precip.
Yesterday
High -- | Low -- °F
Precip. -- in
Pressure 29.93 in
Visibility 2.5 miles
Clouds Overcast 300 ft
Dew Point 55 °F
Humidity 89%
Rainfall 0.03 in
Snow Depth Not available.
5:46 AM 7:44 PM
Waxing Crescent, 4% visible
SPECI KORH 280443Z AUTO 19005KT 2 1/2SM BR OVC003 13/12 A2993 RMK AO2 T01280122 $
Pressure 29.93 in
Visibility 2.5 miles
Clouds Overcast 300 ft
Dew Point 55 °F
Humidity 89%
Rainfall 0.03 in
Snow Depth Not available.
5:46 AM 7:44 PM
Waxing Crescent, 4% visible
SPECI KORH 280443Z AUTO 19005KT 2 1/2SM BR OVC003 13/12 A2993 RMK AO2 T01280122 $

Get Severe Weather Alerts

Thanks for signing up!

Be on the lookout for a verification email in your inbox.

You'll start receiving the daily forecast at 8 AM.

×

10-Day Weather Forecast

Almanac

Astronomy

Apr. 28, 2017 Rise Set
Actual Time
Civil Twilight
Nautical Twilight
Astronomical Twilight
Moon
Length of Visible Light
Length of Day
Tomorrow will be .
, % of the Moon is Illuminated

Today's Extremes

State Highs State Lows

Community

WunderPhotos

WunderBlog® & News

Nearby

Air Quality

  Air Quality AQ Index Pollutant
Not available.

Snow Depth

Station Depth Elevation

Earthquake Activity

City Distance Mag. Time & Date
Minimum magnitude displayed is 2.5.

Coastal Water Temperatures

Place Temperature

Stations

Nearby Weather Stations

Station Location Temp. Windchill Dew Point Humidity Wind Precip. Elev Updated Type
                   

Watches & Warnings

There are currently no watches in effect.